Modesto, California
Current Conditions -  °F | °C
As of 4:53 PM on Monday 26 Jan 2015 (Local Time) from KMOD Reporting Station
Clear Clear  
Wind Chill: 54°   Ceiling: Unl
Heat Index: 54°   Visibility: 7mi
Dew Point: 46°   Wind: 3mph
Humidity: 75%   Direction: 130°SE
Pressure: 30"   Gusts: NA
Location:  37.64°N, 120.99°W
Report Text: KMOD 270053Z 13003KT 7SM CLR 12/08 A3000 RMK AO2 SLP161 T01220078
Loading
Personal Weather Stations






























Interactive Weather Map New forecast layout! Learn more

10-Day Weather Forecast

Advertisements
Track Severe Weather on mobile